sensor_id;sensor_type;location;lat;lon;timestamp;P1;durP1;ratioP1;P2;durP2;ratioP2
53309;SDS011;39197;53.200;5.792;2022-07-18T00:01:24;7.63;;;4.25;;
53309;SDS011;39197;53.200;5.792;2022-07-18T00:03:50;5.50;;;4.05;;
53309;SDS011;39197;53.200;5.792;2022-07-18T00:06:16;9.00;;;4.45;;
53309;SDS011;39197;53.200;5.792;2022-07-18T00:08:41;7.25;;;3.78;;
53309;SDS011;39197;53.200;5.792;2022-07-18T00:11:07;7.13;;;4.32;;
53309;SDS011;39197;53.200;5.792;2022-07-18T00:13:32;7.03;;;3.80;;
53309;SDS011;39197;53.200;5.792;2022-07-18T00:15:58;11.20;;;6.57;;
53309;SDS011;39197;53.200;5.792;2022-07-18T00:18:23;10.88;;;7.15;;
53309;SDS011;39197;53.200;5.792;2022-07-18T00:20:49;9.63;;;6.57;;
53309;SDS011;39197;53.200;5.792;2022-07-18T00:23:15;6.43;;;4.45;;
53309;SDS011;39197;53.200;5.792;2022-07-18T00:25:40;5.53;;;4.35;;
53309;SDS011;39197;53.200;5.792;2022-07-18T00:28:06;6.90;;;4.03;;
53309;SDS011;39197;53.200;5.792;2022-07-18T00:30:32;4.53;;;3.83;;
53309;SDS011;39197;53.200;5.792;2022-07-18T00:32:57;6.65;;;4.45;;
53309;SDS011;39197;53.200;5.792;2022-07-18T00:35:23;6.03;;;4.82;;
53309;SDS011;39197;53.200;5.792;2022-07-18T00:37:49;8.52;;;5.22;;
53309;SDS011;39197;53.200;5.792;2022-07-18T00:40:14;8.50;;;5.93;;
53309;SDS011;39197;53.200;5.792;2022-07-18T00:42:40;8.82;;;5.40;;
53309;SDS011;39197;53.200;5.792;2022-07-18T00:45:05;6.38;;;4.50;;
53309;SDS011;39197;53.200;5.792;2022-07-18T00:47:31;7.40;;;4.70;;
53309;SDS011;39197;53.200;5.792;2022-07-18T00:49:57;8.60;;;4.40;;
53309;SDS011;39197;53.200;5.792;2022-07-18T00:52:23;7.72;;;4.65;;
53309;SDS011;39197;53.200;5.792;2022-07-18T00:54:48;10.05;;;4.68;;
53309;SDS011;39197;53.200;5.792;2022-07-18T00:57:14;8.45;;;4.00;;
53309;SDS011;39197;53.200;5.792;2022-07-18T00:59:40;6.32;;;4.65;;
53309;SDS011;39197;53.200;5.792;2022-07-18T01:02:25;6.75;;;4.63;;
53309;SDS011;39197;53.200;5.792;2022-07-18T01:04:51;11.45;;;4.90;;
53309;SDS011;39197;53.200;5.792;2022-07-18T01:07:17;7.53;;;5.15;;
53309;SDS011;39197;53.200;5.792;2022-07-18T01:09:43;9.73;;;4.85;;
53309;SDS011;39197;53.200;5.792;2022-07-18T01:12:08;5.88;;;4.60;;
53309;SDS011;39197;53.200;5.792;2022-07-18T01:14:34;6.80;;;4.80;;
53309;SDS011;39197;53.200;5.792;2022-07-18T01:17:01;7.82;;;4.90;;
53309;SDS011;39197;53.200;5.792;2022-07-18T01:19:26;6.65;;;4.65;;
53309;SDS011;39197;53.200;5.792;2022-07-18T01:21:52;5.95;;;4.80;;
53309;SDS011;39197;53.200;5.792;2022-07-18T01:24:17;14.82;;;5.28;;
53309;SDS011;39197;53.200;5.792;2022-07-18T01:26:43;8.25;;;5.13;;
53309;SDS011;39197;53.200;5.792;2022-07-18T01:29:08;9.10;;;5.07;;
53309;SDS011;39197;53.200;5.792;2022-07-18T01:31:34;6.95;;;4.70;;
53309;SDS011;39197;53.200;5.792;2022-07-18T01:34:00;6.45;;;4.90;;
53309;SDS011;39197;53.200;5.792;2022-07-18T01:36:26;9.98;;;5.35;;
53309;SDS011;39197;53.200;5.792;2022-07-18T01:38:52;6.97;;;5.00;;
53309;SDS011;39197;53.200;5.792;2022-07-18T01:41:17;7.00;;;5.40;;
53309;SDS011;39197;53.200;5.792;2022-07-18T01:43:43;7.55;;;5.40;;
53309;SDS011;39197;53.200;5.792;2022-07-18T01:46:09;9.35;;;5.63;;
53309;SDS011;39197;53.200;5.792;2022-07-18T01:48:39;8.68;;;5.07;;
53309;SDS011;39197;53.200;5.792;2022-07-18T01:51:05;7.63;;;5.75;;
53309;SDS011;39197;53.200;5.792;2022-07-18T01:53:35;6.93;;;5.72;;
53309;SDS011;39197;53.200;5.792;2022-07-18T01:56:02;9.40;;;5.75;;
53309;SDS011;39197;53.200;5.792;2022-07-18T01:58:28;8.77;;;5.95;;
53309;SDS011;39197;53.200;5.792;2022-07-18T02:00:54;8.88;;;6.30;;
53309;SDS011;39197;53.200;5.792;2022-07-18T02:03:19;10.95;;;7.05;;
53309;SDS011;39197;53.200;5.792;2022-07-18T02:05:45;8.50;;;5.95;;
53309;SDS011;39197;53.200;5.792;2022-07-18T02:08:10;7.18;;;5.68;;
53309;SDS011;39197;53.200;5.792;2022-07-18T02:10:36;9.93;;;6.00;;
53309;SDS011;39197;53.200;5.792;2022-07-18T02:13:02;8.95;;;6.25;;
53309;SDS011;39197;53.200;5.792;2022-07-18T02:15:27;7.38;;;6.30;;
53309;SDS011;39197;53.200;5.792;2022-07-18T02:17:53;8.55;;;6.38;;
53309;SDS011;39197;53.200;5.792;2022-07-18T02:20:19;11.15;;;6.32;;
53309;SDS011;39197;53.200;5.792;2022-07-18T02:22:44;8.43;;;6.20;;
53309;SDS011;39197;53.200;5.792;2022-07-18T02:25:11;7.13;;;6.22;;
53309;SDS011;39197;53.200;5.792;2022-07-18T02:27:36;7.28;;;6.03;;
53309;SDS011;39197;53.200;5.792;2022-07-18T02:30:03;9.15;;;5.93;;
53309;SDS011;39197;53.200;5.792;2022-07-18T02:32:30;8.20;;;6.15;;
53309;SDS011;39197;53.200;5.792;2022-07-18T02:34:56;10.13;;;5.78;;
53309;SDS011;39197;53.200;5.792;2022-07-18T02:37:21;9.52;;;6.57;;
53309;SDS011;39197;53.200;5.792;2022-07-18T02:39:47;9.90;;;6.40;;
53309;SDS011;39197;53.200;5.792;2022-07-18T02:42:13;9.07;;;6.78;;
53309;SDS011;39197;53.200;5.792;2022-07-18T02:44:38;7.95;;;5.95;;
53309;SDS011;39197;53.200;5.792;2022-07-18T02:47:04;7.72;;;6.40;;
53309;SDS011;39197;53.200;5.792;2022-07-18T02:49:29;8.63;;;6.93;;
53309;SDS011;39197;53.200;5.792;2022-07-18T02:51:57;8.40;;;6.40;;
53309;SDS011;39197;53.200;5.792;2022-07-18T02:54:25;8.07;;;6.65;;
53309;SDS011;39197;53.200;5.792;2022-07-18T02:56:51;10.82;;;6.10;;
53309;SDS011;39197;53.200;5.792;2022-07-18T02:59:17;9.50;;;7.30;;
53309;SDS011;39197;53.200;5.792;2022-07-18T03:01:43;7.55;;;6.28;;
53309;SDS011;39197;53.200;5.792;2022-07-18T03:04:09;9.57;;;6.55;;
53309;SDS011;39197;53.200;5.792;2022-07-18T03:06:34;9.27;;;6.70;;
53309;SDS011;39197;53.200;5.792;2022-07-18T03:09:00;8.05;;;6.70;;
53309;SDS011;39197;53.200;5.792;2022-07-18T03:11:25;11.05;;;7.30;;
53309;SDS011;39197;53.200;5.792;2022-07-18T03:13:51;7.82;;;6.53;;
53309;SDS011;39197;53.200;5.792;2022-07-18T03:16:17;10.50;;;6.93;;
53309;SDS011;39197;53.200;5.792;2022-07-18T03:18:42;10.00;;;6.53;;
53309;SDS011;39197;53.200;5.792;2022-07-18T03:21:08;9.45;;;6.45;;
53309;SDS011;39197;53.200;5.792;2022-07-18T03:23:34;9.85;;;7.40;;
53309;SDS011;39197;53.200;5.792;2022-07-18T03:25:59;10.52;;;6.80;;
53309;SDS011;39197;53.200;5.792;2022-07-18T03:28:25;11.52;;;6.90;;
53309;SDS011;39197;53.200;5.792;2022-07-18T03:30:50;8.88;;;7.20;;
53309;SDS011;39197;53.200;5.792;2022-07-18T03:33:17;9.63;;;6.30;;
53309;SDS011;39197;53.200;5.792;2022-07-18T03:35:42;10.85;;;6.78;;
53309;SDS011;39197;53.200;5.792;2022-07-18T03:38:08;8.23;;;6.00;;
53309;SDS011;39197;53.200;5.792;2022-07-18T03:40:33;9.55;;;6.57;;
53309;SDS011;39197;53.200;5.792;2022-07-18T03:42:59;8.93;;;6.15;;
53309;SDS011;39197;53.200;5.792;2022-07-18T03:45:25;12.27;;;6.25;;
53309;SDS011;39197;53.200;5.792;2022-07-18T03:47:51;10.75;;;6.25;;
53309;SDS011;39197;53.200;5.792;2022-07-18T03:50:16;8.65;;;5.80;;
53309;SDS011;39197;53.200;5.792;2022-07-18T03:52:42;8.60;;;7.00;;
53309;SDS011;39197;53.200;5.792;2022-07-18T03:55:07;7.78;;;6.07;;
53309;SDS011;39197;53.200;5.792;2022-07-18T03:57:34;7.85;;;6.50;;
53309;SDS011;39197;53.200;5.792;2022-07-18T03:59:59;9.38;;;6.30;;
53309;SDS011;39197;53.200;5.792;2022-07-18T04:02:25;8.75;;;6.40;;
53309;SDS011;39197;53.200;5.792;2022-07-18T04:04:51;9.60;;;6.47;;
53309;SDS011;39197;53.200;5.792;2022-07-18T04:07:17;7.82;;;5.88;;
53309;SDS011;39197;53.200;5.792;2022-07-18T04:09:42;10.18;;;6.45;;
53309;SDS011;39197;53.200;5.792;2022-07-18T04:12:08;7.85;;;6.15;;
53309;SDS011;39197;53.200;5.792;2022-07-18T04:14:33;9.40;;;6.70;;
53309;SDS011;39197;53.200;5.792;2022-07-18T04:16:59;10.00;;;6.55;;
53309;SDS011;39197;53.200;5.792;2022-07-18T04:19:24;10.70;;;6.50;;
53309;SDS011;39197;53.200;5.792;2022-07-18T04:21:50;9.95;;;6.13;;
53309;SDS011;39197;53.200;5.792;2022-07-18T04:24:16;10.10;;;6.60;;
53309;SDS011;39197;53.200;5.792;2022-07-18T04:26:41;8.48;;;6.07;;
53309;SDS011;39197;53.200;5.792;2022-07-18T04:29:07;9.40;;;6.32;;
53309;SDS011;39197;53.200;5.792;2022-07-18T04:31:32;9.63;;;6.45;;
53309;SDS011;39197;53.200;5.792;2022-07-18T04:33:58;8.13;;;6.25;;
53309;SDS011;39197;53.200;5.792;2022-07-18T04:36:24;8.38;;;6.65;;
53309;SDS011;39197;53.200;5.792;2022-07-18T04:38:50;9.10;;;5.78;;
53309;SDS011;39197;53.200;5.792;2022-07-18T04:41:16;8.32;;;6.55;;
53309;SDS011;39197;53.200;5.792;2022-07-18T04:43:44;9.05;;;6.35;;
53309;SDS011;39197;53.200;5.792;2022-07-18T04:46:10;9.48;;;5.93;;
53309;SDS011;39197;53.200;5.792;2022-07-18T04:48:35;9.18;;;6.20;;
53309;SDS011;39197;53.200;5.792;2022-07-18T04:51:03;9.65;;;6.68;;
53309;SDS011;39197;53.200;5.792;2022-07-18T04:53:29;8.25;;;6.25;;
53309;SDS011;39197;53.200;5.792;2022-07-18T04:55:54;9.55;;;6.25;;
53309;SDS011;39197;53.200;5.792;2022-07-18T04:58:20;8.05;;;5.45;;
53309;SDS011;39197;53.200;5.792;2022-07-18T05:00:45;10.65;;;6.20;;
53309;SDS011;39197;53.200;5.792;2022-07-18T05:03:11;7.47;;;6.28;;
53309;SDS011;39197;53.200;5.792;2022-07-18T05:05:38;11.90;;;6.32;;
53309;SDS011;39197;53.200;5.792;2022-07-18T05:08:04;10.45;;;6.13;;
53309;SDS011;39197;53.200;5.792;2022-07-18T05:10:30;7.22;;;5.72;;
53309;SDS011;39197;53.200;5.792;2022-07-18T05:12:56;8.15;;;5.40;;
53309;SDS011;39197;53.200;5.792;2022-07-18T05:15:22;8.48;;;5.97;;
53309;SDS011;39197;53.200;5.792;2022-07-18T05:17:50;10.02;;;5.20;;
53309;SDS011;39197;53.200;5.792;2022-07-18T05:20:17;7.63;;;5.43;;
53309;SDS011;39197;53.200;5.792;2022-07-18T05:22:45;9.65;;;5.40;;
53309;SDS011;39197;53.200;5.792;2022-07-18T05:25:11;7.57;;;5.30;;
53309;SDS011;39197;53.200;5.792;2022-07-18T05:27:38;9.35;;;5.18;;
53309;SDS011;39197;53.200;5.792;2022-07-18T05:30:04;6.53;;;4.90;;
53309;SDS011;39197;53.200;5.792;2022-07-18T05:32:31;10.38;;;5.35;;
53309;SDS011;39197;53.200;5.792;2022-07-18T05:34:57;11.88;;;5.68;;
53309;SDS011;39197;53.200;5.792;2022-07-18T05:37:23;9.90;;;5.90;;
53309;SDS011;39197;53.200;5.792;2022-07-18T05:39:49;7.93;;;4.88;;
53309;SDS011;39197;53.200;5.792;2022-07-18T05:42:16;9.07;;;5.28;;
53309;SDS011;39197;53.200;5.792;2022-07-18T05:44:42;8.65;;;5.30;;
53309;SDS011;39197;53.200;5.792;2022-07-18T05:47:08;8.30;;;5.53;;
53309;SDS011;39197;53.200;5.792;2022-07-18T05:49:33;7.22;;;5.40;;
53309;SDS011;39197;53.200;5.792;2022-07-18T05:51:59;6.18;;;4.78;;
53309;SDS011;39197;53.200;5.792;2022-07-18T05:54:25;7.85;;;4.95;;
53309;SDS011;39197;53.200;5.792;2022-07-18T05:56:51;8.63;;;4.82;;
53309;SDS011;39197;53.200;5.792;2022-07-18T05:59:18;8.93;;;5.20;;
53309;SDS011;39197;53.200;5.792;2022-07-18T06:01:44;9.63;;;4.80;;
53309;SDS011;39197;53.200;5.792;2022-07-18T06:04:10;8.05;;;4.47;;
53309;SDS011;39197;53.200;5.792;2022-07-18T06:06:36;8.13;;;4.38;;
53309;SDS011;39197;53.200;5.792;2022-07-18T06:09:03;8.77;;;4.93;;
53309;SDS011;39197;53.200;5.792;2022-07-18T06:11:29;9.98;;;4.55;;
53309;SDS011;39197;53.200;5.792;2022-07-18T06:13:55;10.13;;;4.65;;
53309;SDS011;39197;53.200;5.792;2022-07-18T06:16:21;9.90;;;4.85;;
53309;SDS011;39197;53.200;5.792;2022-07-18T06:18:47;9.68;;;4.40;;
53309;SDS011;39197;53.200;5.792;2022-07-18T06:21:12;7.60;;;3.75;;
53309;SDS011;39197;53.200;5.792;2022-07-18T06:23:38;6.53;;;4.07;;
53309;SDS011;39197;53.200;5.792;2022-07-18T06:26:04;7.63;;;4.82;;
53309;SDS011;39197;53.200;5.792;2022-07-18T06:28:30;6.43;;;3.67;;
53309;SDS011;39197;53.200;5.792;2022-07-18T06:30:55;9.75;;;4.07;;
53309;SDS011;39197;53.200;5.792;2022-07-18T06:33:21;8.10;;;4.10;;
53309;SDS011;39197;53.200;5.792;2022-07-18T06:35:47;5.45;;;3.80;;
53309;SDS011;39197;53.200;5.792;2022-07-18T06:38:14;6.90;;;3.50;;
53309;SDS011;39197;53.200;5.792;2022-07-18T06:40:39;7.30;;;3.85;;
53309;SDS011;39197;53.200;5.792;2022-07-18T06:43:05;8.15;;;3.65;;
53309;SDS011;39197;53.200;5.792;2022-07-18T06:45:31;6.93;;;3.45;;
53309;SDS011;39197;53.200;5.792;2022-07-18T06:47:57;6.82;;;3.78;;
53309;SDS011;39197;53.200;5.792;2022-07-18T06:50:23;6.40;;;3.70;;
53309;SDS011;39197;53.200;5.792;2022-07-18T06:52:48;6.93;;;3.60;;
53309;SDS011;39197;53.200;5.792;2022-07-18T06:55:14;6.43;;;3.65;;
53309;SDS011;39197;53.200;5.792;2022-07-18T06:57:40;5.75;;;3.45;;
53309;SDS011;39197;53.200;5.792;2022-07-18T07:00:07;9.52;;;4.20;;
53309;SDS011;39197;53.200;5.792;2022-07-18T07:02:39;6.05;;;3.42;;
53309;SDS011;39197;53.200;5.792;2022-07-18T07:05:06;10.88;;;3.30;;
53309;SDS011;39197;53.200;5.792;2022-07-18T07:07:32;6.32;;;3.35;;
53309;SDS011;39197;53.200;5.792;2022-07-18T07:09:57;6.55;;;3.70;;
53309;SDS011;39197;53.200;5.792;2022-07-18T07:12:23;5.90;;;3.63;;
53309;SDS011;39197;53.200;5.792;2022-07-18T07:14:48;7.50;;;3.55;;
53309;SDS011;39197;53.200;5.792;2022-07-18T07:17:14;4.57;;;3.13;;
53309;SDS011;39197;53.200;5.792;2022-07-18T07:19:39;6.55;;;3.28;;
53309;SDS011;39197;53.200;5.792;2022-07-18T07:22:05;5.22;;;2.92;;
53309;SDS011;39197;53.200;5.792;2022-07-18T07:24:30;6.32;;;4.00;;
53309;SDS011;39197;53.200;5.792;2022-07-18T07:26:56;8.13;;;3.58;;
53309;SDS011;39197;53.200;5.792;2022-07-18T07:29:22;6.78;;;3.42;;
53309;SDS011;39197;53.200;5.792;2022-07-18T07:31:47;5.10;;;2.90;;
53309;SDS011;39197;53.200;5.792;2022-07-18T07:34:13;6.93;;;3.20;;
53309;SDS011;39197;53.200;5.792;2022-07-18T07:36:39;5.32;;;2.80;;
53309;SDS011;39197;53.200;5.792;2022-07-18T07:39:05;5.78;;;2.95;;
53309;SDS011;39197;53.200;5.792;2022-07-18T07:41:31;5.53;;;2.88;;
53309;SDS011;39197;53.200;5.792;2022-07-18T07:43:57;4.72;;;3.15;;
53309;SDS011;39197;53.200;5.792;2022-07-18T07:46:23;6.45;;;2.80;;
53309;SDS011;39197;53.200;5.792;2022-07-18T07:48:48;5.43;;;3.05;;
53309;SDS011;39197;53.200;5.792;2022-07-18T07:51:14;5.53;;;2.60;;
53309;SDS011;39197;53.200;5.792;2022-07-18T07:53:40;7.32;;;2.58;;
53309;SDS011;39197;53.200;5.792;2022-07-18T07:56:06;8.45;;;2.70;;
53309;SDS011;39197;53.200;5.792;2022-07-18T07:58:31;5.88;;;2.40;;
53309;SDS011;39197;53.200;5.792;2022-07-18T08:00:57;6.07;;;2.67;;
53309;SDS011;39197;53.200;5.792;2022-07-18T08:03:23;8.63;;;2.60;;
53309;SDS011;39197;53.200;5.792;2022-07-18T08:05:49;4.60;;;2.22;;
53309;SDS011;39197;53.200;5.792;2022-07-18T08:08:16;10.05;;;2.08;;
53309;SDS011;39197;53.200;5.792;2022-07-18T08:10:42;8.65;;;2.22;;
53309;SDS011;39197;53.200;5.792;2022-07-18T08:13:09;7.15;;;2.45;;
53309;SDS011;39197;53.200;5.792;2022-07-18T08:15:36;4.78;;;1.98;;
53309;SDS011;39197;53.200;5.792;2022-07-18T08:18:02;4.97;;;1.80;;
53309;SDS011;39197;53.200;5.792;2022-07-18T08:20:28;6.13;;;1.83;;
53309;SDS011;39197;53.200;5.792;2022-07-18T08:22:59;4.40;;;2.08;;
53309;SDS011;39197;53.200;5.792;2022-07-18T08:25:30;7.20;;;2.30;;
53309;SDS011;39197;53.200;5.792;2022-07-18T08:27:57;4.50;;;1.90;;
53309;SDS011;39197;53.200;5.792;2022-07-18T08:30:23;5.28;;;1.70;;
53309;SDS011;39197;53.200;5.792;2022-07-18T08:32:49;5.32;;;1.52;;
53309;SDS011;39197;53.200;5.792;2022-07-18T08:35:14;7.00;;;1.52;;
53309;SDS011;39197;53.200;5.792;2022-07-18T08:37:41;5.60;;;1.88;;
53309;SDS011;39197;53.200;5.792;2022-07-18T08:40:07;5.22;;;2.00;;
53309;SDS011;39197;53.200;5.792;2022-07-18T08:42:34;5.45;;;1.80;;
53309;SDS011;39197;53.200;5.792;2022-07-18T08:45:00;4.80;;;1.45;;
53309;SDS011;39197;53.200;5.792;2022-07-18T08:47:28;6.53;;;1.73;;
53309;SDS011;39197;53.200;5.792;2022-07-18T08:49:54;4.97;;;1.90;;
53309;SDS011;39197;53.200;5.792;2022-07-18T08:52:20;6.30;;;2.92;;
53309;SDS011;39197;53.200;5.792;2022-07-18T08:54:46;5.60;;;2.00;;
53309;SDS011;39197;53.200;5.792;2022-07-18T08:57:15;8.85;;;2.10;;
53309;SDS011;39197;53.200;5.792;2022-07-18T08:59:42;3.33;;;1.58;;
53309;SDS011;39197;53.200;5.792;2022-07-18T09:02:07;8.07;;;2.10;;
53309;SDS011;39197;53.200;5.792;2022-07-18T09:04:37;4.82;;;2.10;;
53309;SDS011;39197;53.200;5.792;2022-07-18T09:07:05;8.75;;;2.10;;
53309;SDS011;39197;53.200;5.792;2022-07-18T09:09:36;4.20;;;1.35;;
53309;SDS011;39197;53.200;5.792;2022-07-18T09:12:04;7.15;;;1.67;;
53309;SDS011;39197;53.200;5.792;2022-07-18T09:14:38;5.40;;;1.25;;
53309;SDS011;39197;53.200;5.792;2022-07-18T09:17:09;4.40;;;1.00;;
53309;SDS011;39197;53.200;5.792;2022-07-18T09:19:41;5.00;;;1.30;;
53309;SDS011;39197;53.200;5.792;2022-07-18T09:22:20;3.53;;;1.17;;
53309;SDS011;39197;53.200;5.792;2022-07-18T09:25:01;3.55;;;1.20;;
53309;SDS011;39197;53.200;5.792;2022-07-18T09:27:28;2.78;;;1.10;;
53309;SDS011;39197;53.200;5.792;2022-07-18T09:30:15;9.20;;;1.70;;
53309;SDS011;39197;53.200;5.792;2022-07-18T09:32:44;2.38;;;0.77;;
53309;SDS011;39197;53.200;5.792;2022-07-18T09:35:29;4.88;;;1.30;;
53309;SDS011;39197;53.200;5.792;2022-07-18T09:37:59;6.07;;;1.25;;
53309;SDS011;39197;53.200;5.792;2022-07-18T09:40:36;2.72;;;1.45;;
53309;SDS011;39197;53.200;5.792;2022-07-18T09:43:04;6.07;;;1.35;;
53309;SDS011;39197;53.200;5.792;2022-07-18T09:45:41;3.38;;;0.93;;
53309;SDS011;39197;53.200;5.792;2022-07-18T09:48:13;7.72;;;1.17;;
53309;SDS011;39197;53.200;5.792;2022-07-18T09:51:03;4.40;;;1.30;;
53309;SDS011;39197;53.200;5.792;2022-07-18T09:53:31;9.38;;;2.33;;
53309;SDS011;39197;53.200;5.792;2022-07-18T09:58:29;4.13;;;0.95;;
53309;SDS011;39197;53.200;5.792;2022-07-18T10:01:03;7.25;;;1.35;;
53309;SDS011;39197;53.200;5.792;2022-07-18T10:03:30;6.55;;;1.15;;
53309;SDS011;39197;53.200;5.792;2022-07-18T10:05:56;4.15;;;1.00;;
53309;SDS011;39197;53.200;5.792;2022-07-18T10:08:24;3.72;;;1.00;;
53309;SDS011;39197;53.200;5.792;2022-07-18T10:10:52;3.05;;;1.33;;
53309;SDS011;39197;53.200;5.792;2022-07-18T10:13:18;4.20;;;0.98;;
53309;SDS011;39197;53.200;5.792;2022-07-18T10:15:47;3.10;;;0.98;;
53309;SDS011;39197;53.200;5.792;2022-07-18T10:18:16;2.90;;;1.17;;
53309;SDS011;39197;53.200;5.792;2022-07-18T10:20:58;2.92;;;0.98;;
53309;SDS011;39197;53.200;5.792;2022-07-18T10:23:33;3.28;;;1.13;;
53309;SDS011;39197;53.200;5.792;2022-07-18T10:26:42;6.95;;;1.30;;
53309;SDS011;39197;53.200;5.792;2022-07-18T10:34:26;4.03;;;0.90;;
53309;SDS011;39197;53.200;5.792;2022-07-18T10:39:35;4.43;;;0.88;;
53309;SDS011;39197;53.200;5.792;2022-07-18T10:44:36;3.05;;;0.85;;
53309;SDS011;39197;53.200;5.792;2022-07-18T10:47:12;1.98;;;0.73;;
53309;SDS011;39197;53.200;5.792;2022-07-18T10:57:34;3.58;;;1.17;;
53309;SDS011;39197;53.200;5.792;2022-07-18T11:02:44;2.88;;;1.60;;
53309;SDS011;39197;53.200;5.792;2022-07-18T11:18:24;1.95;;;0.73;;
53309;SDS011;39197;53.200;5.792;2022-07-18T11:20:50;2.05;;;1.10;;
53309;SDS011;39197;53.200;5.792;2022-07-18T11:25:42;3.17;;;1.08;;
53309;SDS011;39197;53.200;5.792;2022-07-18T11:28:09;5.25;;;1.42;;
53309;SDS011;39197;53.200;5.792;2022-07-18T11:30:35;3.45;;;1.20;;
53309;SDS011;39197;53.200;5.792;2022-07-18T11:33:01;4.00;;;1.42;;
53309;SDS011;39197;53.200;5.792;2022-07-18T11:35:27;7.45;;;1.42;;
53309;SDS011;39197;53.200;5.792;2022-07-18T11:37:53;4.05;;;1.50;;
53309;SDS011;39197;53.200;5.792;2022-07-18T11:40:20;4.65;;;1.38;;
53309;SDS011;39197;53.200;5.792;2022-07-18T11:42:46;4.97;;;1.23;;
53309;SDS011;39197;53.200;5.792;2022-07-18T11:45:13;4.82;;;1.40;;
53309;SDS011;39197;53.200;5.792;2022-07-18T11:47:52;3.60;;;1.35;;
53309;SDS011;39197;53.200;5.792;2022-07-18T11:50:26;5.03;;;1.38;;
53309;SDS011;39197;53.200;5.792;2022-07-18T11:52:59;5.95;;;1.90;;
53309;SDS011;39197;53.200;5.792;2022-07-18T11:55:32;3.75;;;1.20;;
53309;SDS011;39197;53.200;5.792;2022-07-18T11:58:06;4.55;;;1.58;;
53309;SDS011;39197;53.200;5.792;2022-07-18T12:00:33;5.15;;;1.75;;
53309;SDS011;39197;53.200;5.792;2022-07-18T12:03:05;5.95;;;1.80;;
53309;SDS011;39197;53.200;5.792;2022-07-18T12:05:40;3.10;;;1.58;;
53309;SDS011;39197;53.200;5.792;2022-07-18T12:13:41;4.88;;;1.77;;
53309;SDS011;39197;53.200;5.792;2022-07-18T12:17:03;5.57;;;2.25;;
53309;SDS011;39197;53.200;5.792;2022-07-18T12:19:14;4.88;;;1.90;;
53309;SDS011;39197;53.200;5.792;2022-07-18T12:21:51;6.68;;;1.98;;
53309;SDS011;39197;53.200;5.792;2022-07-18T12:35:19;4.45;;;1.90;;
53309;SDS011;39197;53.200;5.792;2022-07-18T12:37:51;3.35;;;2.10;;
53309;SDS011;39197;53.200;5.792;2022-07-18T12:40:17;5.20;;;1.80;;
53309;SDS011;39197;53.200;5.792;2022-07-18T12:42:43;3.05;;;1.52;;
53309;SDS011;39197;53.200;5.792;2022-07-18T12:45:11;2.80;;;1.77;;
53309;SDS011;39197;53.200;5.792;2022-07-18T12:47:38;4.80;;;1.60;;
53309;SDS011;39197;53.200;5.792;2022-07-18T12:50:04;2.95;;;2.05;;
53309;SDS011;39197;53.200;5.792;2022-07-18T12:52:31;2.85;;;1.98;;
53309;SDS011;39197;53.200;5.792;2022-07-18T12:54:57;3.45;;;1.50;;
53309;SDS011;39197;53.200;5.792;2022-07-18T12:57:23;3.40;;;1.80;;
53309;SDS011;39197;53.200;5.792;2022-07-18T12:59:49;3.45;;;1.70;;
53309;SDS011;39197;53.200;5.792;2022-07-18T13:02:15;4.03;;;2.35;;
53309;SDS011;39197;53.200;5.792;2022-07-18T13:04:41;3.55;;;1.83;;
53309;SDS011;39197;53.200;5.792;2022-07-18T13:07:07;3.97;;;1.60;;
53309;SDS011;39197;53.200;5.792;2022-07-18T13:09:33;2.85;;;1.45;;
53309;SDS011;39197;53.200;5.792;2022-07-18T13:11:59;4.50;;;1.73;;
53309;SDS011;39197;53.200;5.792;2022-07-18T13:14:25;3.50;;;1.60;;
53309;SDS011;39197;53.200;5.792;2022-07-18T13:16:52;4.35;;;2.05;;
53309;SDS011;39197;53.200;5.792;2022-07-18T13:19:19;3.40;;;2.42;;
53309;SDS011;39197;53.200;5.792;2022-07-18T13:21:45;3.42;;;1.73;;
53309;SDS011;39197;53.200;5.792;2022-07-18T13:24:11;1.83;;;1.50;;
53309;SDS011;39197;53.200;5.792;2022-07-18T13:26:38;3.20;;;1.83;;
53309;SDS011;39197;53.200;5.792;2022-07-18T13:29:04;5.47;;;2.30;;
53309;SDS011;39197;53.200;5.792;2022-07-18T13:31:31;4.85;;;1.50;;
53309;SDS011;39197;53.200;5.792;2022-07-18T13:33:56;3.25;;;1.38;;
53309;SDS011;39197;53.200;5.792;2022-07-18T13:36:22;7.40;;;2.00;;
53309;SDS011;39197;53.200;5.792;2022-07-18T13:38:48;4.75;;;1.80;;
53309;SDS011;39197;53.200;5.792;2022-07-18T13:41:14;3.65;;;1.85;;
53309;SDS011;39197;53.200;5.792;2022-07-18T13:43:40;2.83;;;1.70;;
53309;SDS011;39197;53.200;5.792;2022-07-18T13:46:06;1.90;;;1.02;;
53309;SDS011;39197;53.200;5.792;2022-07-18T13:48:33;2.90;;;1.20;;
53309;SDS011;39197;53.200;5.792;2022-07-18T13:50:58;4.28;;;1.58;;
53309;SDS011;39197;53.200;5.792;2022-07-18T13:53:24;3.80;;;1.38;;
53309;SDS011;39197;53.200;5.792;2022-07-18T13:55:50;3.85;;;1.35;;
53309;SDS011;39197;53.200;5.792;2022-07-18T13:58:16;2.72;;;1.75;;
53309;SDS011;39197;53.200;5.792;2022-07-18T14:00:42;3.67;;;1.30;;
53309;SDS011;39197;53.200;5.792;2022-07-18T14:03:08;3.33;;;1.67;;
53309;SDS011;39197;53.200;5.792;2022-07-18T14:05:34;2.80;;;1.83;;
53309;SDS011;39197;53.200;5.792;2022-07-18T14:07:59;5.22;;;2.30;;
53309;SDS011;39197;53.200;5.792;2022-07-18T14:10:25;5.72;;;3.20;;
53309;SDS011;39197;53.200;5.792;2022-07-18T14:12:51;3.00;;;1.38;;
53309;SDS011;39197;53.200;5.792;2022-07-18T14:15:17;5.57;;;1.63;;
53309;SDS011;39197;53.200;5.792;2022-07-18T14:17:42;3.03;;;1.67;;
53309;SDS011;39197;53.200;5.792;2022-07-18T14:20:08;3.83;;;1.70;;
53309;SDS011;39197;53.200;5.792;2022-07-18T14:22:36;4.82;;;1.90;;
53309;SDS011;39197;53.200;5.792;2022-07-18T14:25:03;2.40;;;1.88;;
53309;SDS011;39197;53.200;5.792;2022-07-18T14:27:30;3.13;;;2.00;;
53309;SDS011;39197;53.200;5.792;2022-07-18T14:29:56;3.33;;;2.22;;
53309;SDS011;39197;53.200;5.792;2022-07-18T14:32:22;2.85;;;1.50;;
53309;SDS011;39197;53.200;5.792;2022-07-18T14:34:47;2.53;;;2.00;;
53309;SDS011;39197;53.200;5.792;2022-07-18T14:37:13;3.38;;;2.40;;
53309;SDS011;39197;53.200;5.792;2022-07-18T14:39:38;3.88;;;1.90;;
53309;SDS011;39197;53.200;5.792;2022-07-18T14:42:04;3.40;;;2.15;;
53309;SDS011;39197;53.200;5.792;2022-07-18T14:44:30;2.92;;;1.58;;
53309;SDS011;39197;53.200;5.792;2022-07-18T14:46:55;3.30;;;1.83;;
53309;SDS011;39197;53.200;5.792;2022-07-18T14:49:21;3.42;;;1.70;;
53309;SDS011;39197;53.200;5.792;2022-07-18T14:51:48;4.22;;;1.55;;
53309;SDS011;39197;53.200;5.792;2022-07-18T14:54:14;2.97;;;1.27;;
53309;SDS011;39197;53.200;5.792;2022-07-18T14:56:39;3.15;;;1.42;;
53309;SDS011;39197;53.200;5.792;2022-07-18T14:59:05;3.30;;;1.48;;
53309;SDS011;39197;53.200;5.792;2022-07-18T15:01:30;2.53;;;1.50;;
53309;SDS011;39197;53.200;5.792;2022-07-18T15:03:57;3.63;;;1.40;;
53309;SDS011;39197;53.200;5.792;2022-07-18T15:06:24;9.13;;;1.67;;
53309;SDS011;39197;53.200;5.792;2022-07-18T15:08:50;2.08;;;1.05;;
53309;SDS011;39197;53.200;5.792;2022-07-18T15:11:15;1.70;;;1.30;;
53309;SDS011;39197;53.200;5.792;2022-07-18T15:13:44;4.10;;;1.98;;
53309;SDS011;39197;53.200;5.792;2022-07-18T15:16:10;3.08;;;1.60;;
53309;SDS011;39197;53.200;5.792;2022-07-18T15:18:35;4.20;;;2.03;;
53309;SDS011;39197;53.200;5.792;2022-07-18T15:21:02;5.13;;;1.10;;
53309;SDS011;39197;53.200;5.792;2022-07-18T15:23:28;5.38;;;2.78;;
53309;SDS011;39197;53.200;5.792;2022-07-18T15:25:53;3.53;;;1.15;;
53309;SDS011;39197;53.200;5.792;2022-07-18T15:28:19;2.88;;;1.40;;
53309;SDS011;39197;53.200;5.792;2022-07-18T15:30:47;3.13;;;1.52;;
53309;SDS011;39197;53.200;5.792;2022-07-18T15:33:16;3.92;;;1.70;;
53309;SDS011;39197;53.200;5.792;2022-07-18T15:35:42;3.38;;;1.60;;
53309;SDS011;39197;53.200;5.792;2022-07-18T15:38:09;5.47;;;2.22;;
53309;SDS011;39197;53.200;5.792;2022-07-18T15:40:35;3.80;;;2.22;;